Time;durP1;ratioP1;P1;durP2;ratioP2;P2;SDS_P1;SDS_P2;PMS_P1;PMS_P2;Temp;Humidity;BMP_temperature;BMP_pressure;BME280_temperature;BME280_humidity;BME280_pressure;Samples;Min_cycle;Max_cycle;Signal;HPM_P1;HPM_P2
2022/06/26 00:01:46;;;;;;;1.90;1.30;;;;;;;;;;5112945;27;20475;-85
2022/06/26 00:04:12;;;;;;;1.60;1.40;;;;;;;;;;5113118;27;20038;-84
2022/06/26 00:06:37;;;;;;;2.60;1.10;;;;;;;;;;5132518;27;20030;-85
2022/06/26 00:09:04;;;;;;;1.80;1.02;;;;;;;;;;5130082;27;20020;-85
2022/06/26 00:11:29;;;;;;;3.15;1.95;;;;;;;;;;5132565;27;20490;-84
2022/06/26 00:13:55;;;;;;;2.45;1.77;;;;;;;;;;5130922;27;20083;-84
2022/06/26 00:16:21;;;;;;;2.33;1.45;;;;;;;;;;5132558;27;20359;-83
2022/06/26 00:18:47;;;;;;;2.60;1.52;;;;;;;;;;5132399;27;20461;-84
2022/06/26 00:21:13;;;;;;;2.20;1.88;;;;;;;;;;5131368;27;20023;-84
2022/06/26 00:23:39;;;;;;;3.78;1.65;;;;;;;;;;5132514;27;20218;-84
2022/06/26 00:26:05;;;;;;;4.18;1.90;;;;;;;;;;5132380;27;20015;-83
2022/06/26 00:28:30;;;;;;;2.83;1.88;;;;;;;;;;5132607;27;20031;-84
2022/06/26 00:30:56;;;;;;;2.25;1.55;;;;;;;;;;5132373;27;20034;-84
2022/06/26 00:33:22;;;;;;;3.58;1.90;;;;;;;;;;5132589;27;20040;-85
2022/06/26 00:35:48;;;;;;;3.20;1.60;;;;;;;;;;5132609;27;20053;-84
2022/06/26 00:38:13;;;;;;;4.90;2.00;;;;;;;;;;5112012;28;20372;-84
2022/06/26 00:40:40;;;;;;;3.28;1.75;;;;;;;;;;5132294;28;20019;-84
2022/06/26 00:43:06;;;;;;;2.83;1.75;;;;;;;;;;5132280;28;20030;-85
2022/06/26 00:45:32;;;;;;;3.05;1.60;;;;;;;;;;5132768;28;20027;-85
2022/06/26 00:47:57;;;;;;;2.08;1.45;;;;;;;;;;5113590;28;20404;-84
2022/06/26 00:50:23;;;;;;;2.28;1.38;;;;;;;;;;5132362;28;20024;-85
2022/06/26 00:52:50;;;;;;;1.67;1.23;;;;;;;;;;5132400;28;20023;-85
2022/06/26 00:55:16;;;;;;;2.10;1.35;;;;;;;;;;5129057;28;20505;-85
2022/06/26 00:57:42;;;;;;;1.65;1.10;;;;;;;;;;5112931;28;20084;-86
2022/06/26 01:00:10;;;;;;;2.03;1.00;;;;;;;;;;5133775;27;20387;-86
2022/06/26 01:02:36;;;;;;;2.33;1.10;;;;;;;;;;5117675;27;20034;-85
2022/06/26 01:05:01;;;;;;;2.70;1.10;;;;;;;;;;5136408;27;20027;-85
2022/06/26 01:07:26;;;;;;;1.83;1.02;;;;;;;;;;5135907;27;20082;-85
2022/06/26 01:09:52;;;;;;;1.50;0.80;;;;;;;;;;5136379;27;20023;-84
2022/06/26 01:12:17;;;;;;;1.85;0.85;;;;;;;;;;5136443;27;20076;-84
2022/06/26 01:14:43;;;;;;;2.65;0.80;;;;;;;;;;5136077;27;20026;-84
2022/06/26 01:17:10;;;;;;;1.88;1.00;;;;;;;;;;5136121;27;20110;-84
2022/06/26 01:19:35;;;;;;;1.17;0.80;;;;;;;;;;5136053;27;20015;-85
2022/06/26 01:22:01;;;;;;;1.25;0.93;;;;;;;;;;5136204;27;20046;-84
2022/06/26 01:24:26;;;;;;;2.53;0.90;;;;;;;;;;5135794;27;20062;-85
2022/06/26 01:26:52;;;;;;;1.25;1.00;;;;;;;;;;5117483;27;20049;-85
2022/06/26 01:29:18;;;;;;;1.50;1.00;;;;;;;;;;5136054;27;20023;-84
2022/06/26 01:31:43;;;;;;;1.35;1.10;;;;;;;;;;5135841;27;20051;-84
2022/06/26 01:34:11;;;;;;;2.47;1.10;;;;;;;;;;5135807;27;20397;-85
2022/06/26 01:36:39;;;;;;;2.25;1.20;;;;;;;;;;5115282;27;20015;-84
2022/06/26 01:39:05;;;;;;;1.52;1.10;;;;;;;;;;5134372;27;20023;-86
2022/06/26 01:41:30;;;;;;;1.73;1.10;;;;;;;;;;5117171;27;20019;-86
2022/06/26 01:43:56;;;;;;;2.65;1.10;;;;;;;;;;5135609;27;20027;-86
2022/06/26 01:46:24;;;;;;;1.67;1.00;;;;;;;;;;5117369;27;20023;-84
2022/06/26 01:48:49;;;;;;;2.05;1.10;;;;;;;;;;5116222;27;20115;-84
2022/06/26 01:51:15;;;;;;;2.50;1.30;;;;;;;;;;5135554;27;20106;-85
2022/06/26 01:53:40;;;;;;;1.48;1.10;;;;;;;;;;5135914;27;20043;-85
2022/06/26 01:56:06;;;;;;;2.33;1.10;;;;;;;;;;5134324;27;20023;-86
2022/06/26 01:58:33;;;;;;;2.28;1.10;;;;;;;;;;5134340;27;20069;-85
2022/06/26 02:00:59;;;;;;;1.85;1.20;;;;;;;;;;5134909;27;20027;-85
2022/06/26 02:03:26;;;;;;;3.10;1.30;;;;;;;;;;5135187;27;20110;-84
2022/06/26 02:05:52;;;;;;;2.35;1.20;;;;;;;;;;5116857;27;20030;-84
2022/06/26 02:08:17;;;;;;;1.52;0.90;;;;;;;;;;5114667;27;20117;-86
2022/06/26 02:13:37;;;;;;;1.92;1.10;;;;;;;;;;5134800;27;20030;-85
2022/06/26 02:16:11;;;;;;;3.25;1.20;;;;;;;;;;5115652;27;20034;-88
2022/06/26 02:18:39;;;;;;;2.78;1.20;;;;;;;;;;5134495;27;20114;-84
2022/06/26 02:21:07;;;;;;;2.55;1.05;;;;;;;;;;5133384;27;20034;-84
2022/06/26 02:23:32;;;;;;;2.50;1.13;;;;;;;;;;5115289;27;20027;-86
2022/06/26 02:25:58;;;;;;;3.58;1.20;;;;;;;;;;5133862;27;20419;-89
2022/06/26 02:28:23;;;;;;;1.65;0.90;;;;;;;;;;5113752;27;20034;-88
2022/06/26 02:30:49;;;;;;;1.77;0.90;;;;;;;;;;5134470;27;20470;-85
2022/06/26 02:33:15;;;;;;;2.03;1.08;;;;;;;;;;5133335;27;20031;-86
2022/06/26 02:35:40;;;;;;;1.83;1.00;;;;;;;;;;5134947;27;20026;-87
2022/06/26 02:38:06;;;;;;;2.45;1.20;;;;;;;;;;5134707;27;20023;-87
2022/06/26 02:40:32;;;;;;;3.55;1.17;;;;;;;;;;5134453;27;20455;-86
2022/06/26 02:42:57;;;;;;;2.13;1.20;;;;;;;;;;5133211;27;20061;-89
2022/06/26 02:45:23;;;;;;;1.75;1.10;;;;;;;;;;5135165;27;20023;-89
2022/06/26 02:47:49;;;;;;;1.33;0.90;;;;;;;;;;5135326;27;20407;-90
2022/06/26 02:50:15;;;;;;;3.00;1.48;;;;;;;;;;5117619;27;20031;-89
2022/06/26 02:52:41;;;;;;;1.63;1.00;;;;;;;;;;5118519;27;20551;-92
2022/06/26 02:55:07;;;;;;;1.30;1.00;;;;;;;;;;5135836;27;20043;-91
2022/06/26 02:57:32;;;;;;;1.42;1.05;;;;;;;;;;5117773;27;20360;-91
2022/06/26 02:59:58;;;;;;;1.33;1.00;;;;;;;;;;5117324;27;20026;-89
2022/06/26 03:02:24;;;;;;;1.60;1.10;;;;;;;;;;5117086;27;20023;-90
2022/06/26 03:04:53;;;;;;;2.85;1.10;;;;;;;;;;5117507;27;20495;-90
2022/06/26 03:07:20;;;;;;;2.10;1.10;;;;;;;;;;5117044;27;20030;-90
2022/06/26 03:09:45;;;;;;;1.90;1.10;;;;;;;;;;5135709;27;20041;-90
2022/06/26 03:12:11;;;;;;;2.70;1.00;;;;;;;;;;5118127;27;20023;-90
2022/06/26 03:14:37;;;;;;;1.88;1.30;;;;;;;;;;5135150;27;20022;-91
2022/06/26 03:17:04;;;;;;;1.88;1.00;;;;;;;;;;5116313;27;20034;-91
2022/06/26 03:19:29;;;;;;;4.15;1.30;;;;;;;;;;5135707;27;20030;-91
2022/06/26 03:21:55;;;;;;;2.17;1.00;;;;;;;;;;5116844;27;20030;-91
2022/06/26 03:24:21;;;;;;;1.38;1.00;;;;;;;;;;5115998;27;20023;-91
2022/06/26 03:26:47;;;;;;;1.35;0.88;;;;;;;;;;5134621;27;20062;-91
2022/06/26 03:29:13;;;;;;;1.90;1.08;;;;;;;;;;5115969;27;20417;-92
2022/06/26 03:31:39;;;;;;;3.72;1.25;;;;;;;;;;5116551;27;20037;-90
2022/06/26 03:34:04;;;;;;;1.25;1.05;;;;;;;;;;5113826;27;20106;-90
2022/06/26 03:36:31;;;;;;;1.73;0.90;;;;;;;;;;5132750;27;20055;-90
2022/06/26 03:38:56;;;;;;;1.50;1.13;;;;;;;;;;5116001;27;20046;-89
2022/06/26 03:41:31;;;;;;;2.17;0.90;;;;;;;;;;5134165;27;20023;-89
2022/06/26 03:43:56;;;;;;;0.90;0.90;;;;;;;;;;5114393;27;20050;-89
2022/06/26 03:46:22;;;;;;;1.50;1.10;;;;;;;;;;5114512;27;20038;-90
2022/06/26 03:48:48;;;;;;;2.10;1.02;;;;;;;;;;5133623;27;20022;-89
2022/06/26 03:51:14;;;;;;;2.28;1.10;;;;;;;;;;5133920;27;20019;-90
2022/06/26 03:53:39;;;;;;;1.10;1.00;;;;;;;;;;5114381;27;20477;-88
2022/06/26 03:56:05;;;;;;;1.45;1.02;;;;;;;;;;5114795;27;20027;-86
2022/06/26 03:58:31;;;;;;;2.00;1.40;;;;;;;;;;5114737;27;20027;-86
2022/06/26 04:00:57;;;;;;;3.90;1.73;;;;;;;;;;5132951;27;20025;-86
2022/06/26 04:03:23;;;;;;;4.60;2.13;;;;;;;;;;5133040;27;20037;-86
2022/06/26 04:05:49;;;;;;;3.70;2.92;;;;;;;;;;5114595;27;20102;-86
2022/06/26 04:08:15;;;;;;;3.28;1.63;;;;;;;;;;5133296;27;20034;-87
2022/06/26 04:10:40;;;;;;;3.25;1.60;;;;;;;;;;5114855;27;20491;-88
2022/06/26 04:13:10;;;;;;;2.25;1.27;;;;;;;;;;5133147;27;20019;-87
2022/06/26 04:15:37;;;;;;;2.28;1.63;;;;;;;;;;5114435;27;20022;-88
2022/06/26 04:18:03;;;;;;;2.33;1.70;;;;;;;;;;5132175;27;20035;-91
2022/06/26 04:20:29;;;;;;;2.45;1.70;;;;;;;;;;5131880;27;20729;-88
2022/06/26 04:23:06;;;;;;;3.03;1.92;;;;;;;;;;5114563;27;20031;-89
2022/06/26 04:25:33;;;;;;;3.70;2.20;;;;;;;;;;5131632;27;20023;-90
2022/06/26 04:27:59;;;;;;;4.90;3.65;;;;;;;;;;5132913;27;20023;-87
2022/06/26 04:30:25;;;;;;;4.07;2.97;;;;;;;;;;5132983;27;20502;-89
2022/06/26 04:32:50;;;;;;;4.40;3.22;;;;;;;;;;5114359;28;20026;-89
2022/06/26 04:35:17;;;;;;;4.65;3.75;;;;;;;;;;5113579;28;20027;-88
2022/06/26 04:37:42;;;;;;;3.70;3.22;;;;;;;;;;5132731;27;20046;-89
2022/06/26 04:40:10;;;;;;;3.90;3.13;;;;;;;;;;5132839;27;20483;-88
2022/06/26 04:42:36;;;;;;;5.18;3.50;;;;;;;;;;5113642;28;20050;-87
2022/06/26 04:45:02;;;;;;;5.25;4.10;;;;;;;;;;5113783;28;20463;-88
2022/06/26 04:47:28;;;;;;;4.75;4.20;;;;;;;;;;5133152;28;20558;-90
2022/06/26 04:49:53;;;;;;;4.47;3.40;;;;;;;;;;5114827;28;20102;-90
2022/06/26 04:52:19;;;;;;;4.80;3.45;;;;;;;;;;5132845;28;20027;-86
2022/06/26 04:54:47;;;;;;;4.43;3.50;;;;;;;;;;5113886;28;20444;-84
2022/06/26 04:57:13;;;;;;;4.80;4.03;;;;;;;;;;5131637;28;20027;-86
2022/06/26 04:59:39;;;;;;;5.32;4.32;;;;;;;;;;5113853;28;20031;-87
2022/06/26 05:02:06;;;;;;;3.80;3.40;;;;;;;;;;5132304;28;20027;-86
2022/06/26 05:04:35;;;;;;;3.95;3.53;;;;;;;;;;5113638;28;20088;-86
2022/06/26 05:07:00;;;;;;;4.55;3.92;;;;;;;;;;5132675;28;20027;-86
2022/06/26 05:09:26;;;;;;;5.75;4.30;;;;;;;;;;5132341;28;20034;-86
2022/06/26 05:11:51;;;;;;;4.47;3.88;;;;;;;;;;5131961;28;20031;-85
2022/06/26 05:14:18;;;;;;;4.78;4.30;;;;;;;;;;5131056;28;20019;-87
2022/06/26 05:16:44;;;;;;;6.13;4.93;;;;;;;;;;5132287;28;20487;-86
2022/06/26 05:19:09;;;;;;;5.32;4.40;;;;;;;;;;5112471;28;20023;-88
2022/06/26 05:21:35;;;;;;;5.28;4.40;;;;;;;;;;5132268;28;20034;-85
2022/06/26 05:24:01;;;;;;;4.50;3.95;;;;;;;;;;5107982;28;20046;-84
2022/06/26 05:26:26;;;;;;;5.85;4.50;;;;;;;;;;5114016;28;20054;-87
2022/06/26 05:28:52;;;;;;;6.22;4.53;;;;;;;;;;5114520;28;20023;-86
2022/06/26 05:31:17;;;;;;;4.40;4.00;;;;;;;;;;5131747;28;20375;-86
2022/06/26 05:33:43;;;;;;;5.68;3.70;;;;;;;;;;5112075;28;20027;-88
2022/06/26 05:36:08;;;;;;;4.40;3.72;;;;;;;;;;5113735;28;20057;-85
2022/06/26 05:38:35;;;;;;;11.48;10.20;;;;;;;;;;5131996;28;20115;-85
2022/06/26 05:41:01;;;;;;;6.00;4.53;;;;;;;;;;5130613;28;20023;-86
2022/06/26 05:43:27;;;;;;;4.47;4.05;;;;;;;;;;5132094;28;20038;-85
2022/06/26 05:45:52;;;;;;;4.30;3.60;;;;;;;;;;5129352;28;20053;-83
2022/06/26 05:48:18;;;;;;;4.25;3.45;;;;;;;;;;5131222;27;20031;-84
2022/06/26 05:50:43;;;;;;;4.78;2.40;;;;;;;;;;5111701;27;20038;-86
2022/06/26 05:53:09;;;;;;;3.38;2.22;;;;;;;;;;5131973;27;20023;-84
2022/06/26 05:55:35;;;;;;;3.03;2.55;;;;;;;;;;5115830;27;20479;-85
2022/06/26 05:58:01;;;;;;;4.30;2.90;;;;;;;;;;5135322;27;20038;-84
2022/06/26 06:00:27;;;;;;;4.07;2.83;;;;;;;;;;5132707;27;20055;-86
2022/06/26 06:02:52;;;;;;;4.32;3.08;;;;;;;;;;5134282;27;20062;-85
2022/06/26 06:05:18;;;;;;;3.47;2.83;;;;;;;;;;5134340;27;20042;-84
2022/06/26 06:07:43;;;;;;;3.20;2.63;;;;;;;;;;5130562;27;20034;-83
2022/06/26 06:10:10;;;;;;;3.95;2.45;;;;;;;;;;5126105;27;20378;-83
2022/06/26 06:12:35;;;;;;;3.90;2.63;;;;;;;;;;5134319;27;20367;-84
2022/06/26 06:15:02;;;;;;;3.90;2.50;;;;;;;;;;5134595;27;20023;-83
2022/06/26 06:17:37;;;;;;;2.38;2.13;;;;;;;;;;5127911;27;20039;-83
2022/06/26 06:20:09;;;;;;;3.63;2.50;;;;;;;;;;5115895;27;20110;-83
2022/06/26 06:22:34;;;;;;;3.28;2.92;;;;;;;;;;5133492;27;20030;-81
2022/06/26 06:25:00;;;;;;;3.13;2.75;;;;;;;;;;5132619;27;20031;-84
2022/06/26 06:27:25;;;;;;;4.63;3.33;;;;;;;;;;5132701;27;20059;-84
2022/06/26 06:29:51;;;;;;;4.32;2.80;;;;;;;;;;5134186;27;20023;-82
2022/06/26 06:32:16;;;;;;;4.47;3.20;;;;;;;;;;5133202;27;20539;-82
2022/06/26 06:34:42;;;;;;;3.55;3.25;;;;;;;;;;5114143;27;20026;-86
2022/06/26 06:37:08;;;;;;;5.50;3.20;;;;;;;;;;5132766;27;20058;-83
2022/06/26 06:39:33;;;;;;;4.40;3.20;;;;;;;;;;5131462;27;20054;-86
2022/06/26 06:41:58;;;;;;;3.33;3.03;;;;;;;;;;5132522;27;20076;-85
2022/06/26 06:44:24;;;;;;;5.50;3.17;;;;;;;;;;5132392;27;20068;-86
2022/06/26 06:46:49;;;;;;;4.00;3.60;;;;;;;;;;5132167;27;21434;-84
2022/06/26 06:49:15;;;;;;;4.80;3.78;;;;;;;;;;5132183;27;20024;-83
2022/06/26 06:51:40;;;;;;;4.45;3.33;;;;;;;;;;5128939;27;20499;-83
2022/06/26 06:54:06;;;;;;;4.38;3.20;;;;;;;;;;5131154;27;20092;-84
2022/06/26 06:56:32;;;;;;;5.32;3.42;;;;;;;;;;5130879;27;20027;-82
2022/06/26 06:58:57;;;;;;;4.80;3.45;;;;;;;;;;5131515;27;20841;-85
2022/06/26 07:01:23;;;;;;;3.33;2.90;;;;;;;;;;5129042;27;20053;-86
2022/06/26 07:03:48;;;;;;;3.35;2.88;;;;;;;;;;5124557;27;20039;-84
2022/06/26 07:06:13;;;;;;;3.72;2.83;;;;;;;;;;5123922;27;20094;-83
2022/06/26 07:08:39;;;;;;;3.20;2.90;;;;;;;;;;5131338;27;20466;-84
2022/06/26 07:11:04;;;;;;;4.85;2.90;;;;;;;;;;5128763;27;20081;-83
2022/06/26 07:13:30;;;;;;;4.63;2.60;;;;;;;;;;5128065;27;20034;-83
2022/06/26 07:15:56;;;;;;;4.07;3.10;;;;;;;;;;5129774;27;20507;-82
2022/06/26 07:18:22;;;;;;;3.03;2.50;;;;;;;;;;5127061;27;20466;-84
2022/06/26 07:20:47;;;;;;;3.47;2.70;;;;;;;;;;5125525;27;20019;-84
2022/06/26 07:23:13;;;;;;;4.00;2.72;;;;;;;;;;5125728;27;20030;-82
2022/06/26 07:25:38;;;;;;;2.97;2.25;;;;;;;;;;5131888;27;20376;-84
2022/06/26 07:28:04;;;;;;;4.55;2.60;;;;;;;;;;5132878;27;20034;-84
2022/06/26 07:30:31;;;;;;;2.80;2.40;;;;;;;;;;5133135;27;20031;-82
2022/06/26 07:32:57;;;;;;;3.30;2.17;;;;;;;;;;5132917;27;20463;-84
2022/06/26 07:35:22;;;;;;;3.83;2.40;;;;;;;;;;5111457;27;20062;-85
2022/06/26 07:37:48;;;;;;;5.55;2.65;;;;;;;;;;5132913;27;20409;-84
2022/06/26 07:40:13;;;;;;;4.10;2.90;;;;;;;;;;5113648;27;20102;-83
2022/06/26 07:42:39;;;;;;;4.00;2.50;;;;;;;;;;5114307;27;20034;-84
2022/06/26 07:45:05;;;;;;;12.65;11.35;;;;;;;;;;5132263;27;20027;-82
2022/06/26 07:47:30;;;;;;;8.57;7.75;;;;;;;;;;5132626;27;20027;-85
2022/06/26 07:49:55;;;;;;;5.70;4.97;;;;;;;;;;5132671;27;20023;-84
2022/06/26 07:52:21;;;;;;;3.30;2.72;;;;;;;;;;5113872;27;20050;-84
2022/06/26 07:54:46;;;;;;;2.90;2.33;;;;;;;;;;5131793;27;20570;-81
2022/06/26 07:57:12;;;;;;;4.32;2.35;;;;;;;;;;5132714;27;20459;-85
2022/06/26 07:59:37;;;;;;;3.70;1.92;;;;;;;;;;5131463;27;20086;-85
2022/06/26 08:02:03;;;;;;;3.10;2.22;;;;;;;;;;5114164;27;20060;-83
2022/06/26 08:04:28;;;;;;;2.55;1.80;;;;;;;;;;5132126;27;20106;-83
2022/06/26 08:06:54;;;;;;;1.80;1.30;;;;;;;;;;5130863;27;20515;-84
2022/06/26 08:09:19;;;;;;;2.40;1.48;;;;;;;;;;5131108;27;20023;-86
2022/06/26 08:11:45;;;;;;;2.55;1.60;;;;;;;;;;5133568;27;20031;-86
2022/06/26 08:14:10;;;;;;;5.82;5.22;;;;;;;;;;5133190;27;20030;-81
2022/06/26 08:16:35;;;;;;;3.20;2.00;;;;;;;;;;5130674;27;20026;-83
2022/06/26 08:19:01;;;;;;;3.25;2.70;;;;;;;;;;5129112;27;20019;-84
2022/06/26 08:24:10;;;;;;;1.70;1.13;;;;;;;;;;5130134;27;20034;-82
2022/06/26 08:26:36;;;;;;;1.70;0.95;;;;;;;;;;5129782;27;20365;-82
2022/06/26 08:29:01;;;;;;;1.55;1.15;;;;;;;;;;5130370;27;20103;-85
2022/06/26 08:31:27;;;;;;;2.95;1.20;;;;;;;;;;5144533;27;20062;-82
2022/06/26 08:33:52;;;;;;;1.80;1.20;;;;;;;;;;5131758;27;20034;-83
2022/06/26 08:36:17;;;;;;;1.63;1.00;;;;;;;;;;5131087;27;20034;-82
2022/06/26 08:38:43;;;;;;;1.02;0.60;;;;;;;;;;5131421;27;20026;-83
2022/06/26 08:41:12;;;;;;;3.58;1.00;;;;;;;;;;5129955;27;20023;-83
2022/06/26 08:43:39;;;;;;;2.40;1.10;;;;;;;;;;5130384;28;20435;-83
2022/06/26 08:46:06;;;;;;;1.80;1.20;;;;;;;;;;5111629;28;20034;-83
2022/06/26 08:48:43;;;;;;;2.08;0.82;;;;;;;;;;5124436;27;20360;-82
2022/06/26 08:51:10;;;;;;;2.55;2.20;;;;;;;;;;5127189;28;20084;-84
2022/06/26 08:53:36;;;;;;;1.58;1.20;;;;;;;;;;5106978;27;20047;-83
2022/06/26 08:56:02;;;;;;;3.33;1.60;;;;;;;;;;5126883;28;20364;-83
2022/06/26 08:58:27;;;;;;;1.95;1.20;;;;;;;;;;5127644;28;20031;-84
2022/06/26 09:00:53;;;;;;;1.58;1.10;;;;;;;;;;5128211;28;20526;-84
2022/06/26 09:03:19;;;;;;;2.35;1.33;;;;;;;;;;5129880;28;20035;-83
2022/06/26 09:05:44;;;;;;;1.80;1.10;;;;;;;;;;5125210;27;20032;-83
2022/06/26 09:08:20;;;;;;;1.90;1.25;;;;;;;;;;5141301;27;20049;-84
2022/06/26 09:10:47;;;;;;;2.55;1.30;;;;;;;;;;5130243;28;20039;-84
2022/06/26 09:13:13;;;;;;;1.63;1.15;;;;;;;;;;5129272;28;20174;-83
2022/06/26 09:15:43;;;;;;;1.90;0.95;;;;;;;;;;5111715;28;23296;-83
2022/06/26 09:18:10;;;;;;;1.70;1.10;;;;;;;;;;5110417;28;20042;-82
2022/06/26 09:20:48;;;;;;;1.70;0.90;;;;;;;;;;5131447;27;20467;-84
2022/06/26 09:23:15;;;;;;;1.65;1.35;;;;;;;;;;5114578;27;20035;-82
2022/06/26 09:25:45;;;;;;;2.70;1.55;;;;;;;;;;5134840;27;20067;-85
2022/06/26 09:28:13;;;;;;;1.90;1.67;;;;;;;;;;5115487;27;20055;-84
2022/06/26 09:31:08;;;;;;;1.90;1.38;;;;;;;;;;5130327;27;20498;-81
2022/06/26 09:33:35;;;;;;;9.65;8.75;;;;;;;;;;5118198;27;20061;-83
2022/06/26 09:36:03;;;;;;;2.45;1.13;;;;;;;;;;5113922;27;20152;-83
2022/06/26 09:38:31;;;;;;;2.63;1.10;;;;;;;;;;5135335;27;20034;-86
2022/06/26 09:40:59;;;;;;;2.25;1.20;;;;;;;;;;5114683;27;20030;-85
2022/06/26 09:43:40;;;;;;;1.65;1.08;;;;;;;;;;5127277;27;20031;-85
2022/06/26 09:46:08;;;;;;;1.67;1.30;;;;;;;;;;5110083;27;20027;-85
2022/06/26 09:48:34;;;;;;;2.45;1.10;;;;;;;;;;5130865;27;20030;-85
2022/06/26 09:51:00;;;;;;;3.17;1.30;;;;;;;;;;5129550;27;20046;-85
2022/06/26 09:53:27;;;;;;;2.53;1.10;;;;;;;;;;5129290;27;20503;-85
2022/06/26 09:55:55;;;;;;;1.60;0.93;;;;;;;;;;5132954;27;20027;-86
2022/06/26 09:58:21;;;;;;;1.85;1.20;;;;;;;;;;5114722;27;20415;-82
2022/06/26 10:06:26;;;;;;;1.58;1.17;;;;;;;;;;5133480;27;20030;-85
2022/06/26 10:09:03;;;;;;;2.42;1.02;;;;;;;;;;5129721;27;20112;-85
2022/06/26 10:11:30;;;;;;;1.88;0.80;;;;;;;;;;5129077;27;20058;-86
2022/06/26 10:14:13;;;;;;;1.17;0.77;;;;;;;;;;5133808;27;20027;-85
2022/06/26 10:16:39;;;;;;;1.13;0.80;;;;;;;;;;5111397;27;20471;-89
2022/06/26 10:19:25;;;;;;;1.17;1.02;;;;;;;;;;5115491;27;20044;-85
2022/06/26 10:21:52;;;;;;;2.60;2.00;;;;;;;;;;5132735;27;20424;-86
2022/06/26 10:24:17;;;;;;;2.55;1.65;;;;;;;;;;5124813;27;20020;-90
2022/06/26 10:27:01;;;;;;;1.13;0.98;;;;;;;;;;5134583;27;20038;-90
2022/06/26 10:29:32;;;;;;;2.00;1.27;;;;;;;;;;5114015;27;20050;-85
2022/06/26 10:31:58;;;;;;;1.40;1.08;;;;;;;;;;5105971;27;20416;-86
2022/06/26 10:34:25;;;;;;;1.33;0.95;;;;;;;;;;5131383;27;20025;-84
2022/06/26 10:37:10;;;;;;;1.02;1.00;;;;;;;;;;5128674;27;20502;-87
2022/06/26 10:39:38;;;;;;;1.13;1.02;;;;;;;;;;5131596;27;20072;-85
2022/06/26 10:45:26;;;;;;;1.17;1.00;;;;;;;;;;5132614;27;20084;-85
2022/06/26 10:47:54;;;;;;;3.08;1.73;;;;;;;;;;5133278;27;20160;-85
2022/06/26 10:50:26;;;;;;;2.00;0.90;;;;;;;;;;5129644;27;20031;-88
2022/06/26 10:52:53;;;;;;;1.13;0.70;;;;;;;;;;5129189;27;20030;-85
2022/06/26 10:55:18;;;;;;;1.65;0.73;;;;;;;;;;5107271;27;20055;-85
2022/06/26 10:57:44;;;;;;;0.45;0.45;;;;;;;;;;5130503;27;20106;-85
2022/06/26 11:00:13;;;;;;;2.22;1.63;;;;;;;;;;5131881;27;20080;-86
2022/06/26 11:02:44;;;;;;;3.08;1.83;;;;;;;;;;5132876;27;20023;-86
2022/06/26 11:05:11;;;;;;;2.05;0.60;;;;;;;;;;5129123;27;20031;-86
2022/06/26 11:07:40;;;;;;;2.03;0.70;;;;;;;;;;5126081;27;20058;-84
2022/06/26 11:10:13;;;;;;;;;;;;;;;;;;5133158;27;20080;-86
2022/06/26 11:12:40;;;;;;;1.55;0.93;;;;;;;;;;5131415;27;19919;-84
2022/06/26 11:15:06;;;;;;;1.65;0.77;;;;;;;;;;5133845;27;20038;-87
2022/06/26 11:17:33;;;;;;;1.58;0.80;;;;;;;;;;5133075;27;20371;-85
2022/06/26 11:22:42;;;;;;;1.13;0.63;;;;;;;;;;5130298;27;20092;-87
2022/06/26 11:25:08;;;;;;;1.08;0.93;;;;;;;;;;5130395;27;20023;-87
2022/06/26 11:27:34;;;;;;;0.73;0.60;;;;;;;;;;5133775;27;20023;-85
2022/06/26 11:30:00;;;;;;;1.25;0.60;;;;;;;;;;5130938;27;20038;-86
2022/06/26 11:32:26;;;;;;;1.27;0.70;;;;;;;;;;5129937;27;20019;-85
2022/06/26 11:34:54;;;;;;;1.50;0.65;;;;;;;;;;5131142;27;20117;-83
2022/06/26 11:37:36;;;;;;;0.50;0.50;;;;;;;;;;5130758;27;20087;-86
2022/06/26 11:40:17;;;;;;;1.95;0.80;;;;;;;;;;5113794;27;20026;-88
2022/06/26 11:42:43;;;;;;;1.38;0.55;;;;;;;;;;5129288;27;20023;-87
2022/06/26 11:45:08;;;;;;;0.60;0.55;;;;;;;;;;5130650;27;20599;-85
2022/06/26 11:47:36;;;;;;;0.68;0.50;;;;;;;;;;5132314;27;20566;-88
2022/06/26 11:50:02;;;;;;;0.70;0.60;;;;;;;;;;5130973;27;20023;-86
2022/06/26 11:52:28;;;;;;;0.82;0.60;;;;;;;;;;5132407;27;20030;-84
2022/06/26 11:55:11;;;;;;;1.55;0.77;;;;;;;;;;5130078;27;20043;-83
2022/06/26 11:57:37;;;;;;;1.25;0.95;;;;;;;;;;5128443;27;20167;-85
2022/06/26 12:00:06;;;;;;;1.30;0.77;;;;;;;;;;5111595;27;20102;-85
2022/06/26 12:02:31;;;;;;;;;;;;;;;;;;5131564;27;20027;-85
2022/06/26 12:05:01;;;;;;;1.92;0.80;;;;;;;;;;5128386;27;19923;-86
2022/06/26 12:07:27;;;;;;;;;;;;;;;;;;5112358;27;20368;-86
2022/06/26 12:09:52;;;;;;;1.50;0.70;;;;;;;;;;5132830;27;19921;-86
2022/06/26 12:12:18;;;;;;;2.15;1.15;;;;;;;;;;5128517;27;20019;-83
2022/06/26 12:14:50;;;;;;;1.17;0.68;;;;;;;;;;5114145;27;20030;-88
2022/06/26 12:17:22;;;;;;;1.60;0.70;;;;;;;;;;5131795;27;20023;-88
2022/06/26 12:19:47;;;;;;;1.38;0.70;;;;;;;;;;5114954;27;20035;-85
2022/06/26 12:22:13;;;;;;;1.10;0.73;;;;;;;;;;5132589;27;20042;-86
2022/06/26 12:24:49;;;;;;;1.35;0.65;;;;;;;;;;5130755;27;20035;-85
2022/06/26 12:27:14;;;;;;;1.52;0.80;;;;;;;;;;5131077;27;20027;-84
2022/06/26 12:29:40;;;;;;;1.45;1.00;;;;;;;;;;5129611;27;20485;-86
2022/06/26 12:32:06;;;;;;;1.73;1.13;;;;;;;;;;5132631;27;20426;-85
2022/06/26 12:34:31;;;;;;;1.33;1.00;;;;;;;;;;5113902;28;20475;-86
2022/06/26 12:36:56;;;;;;;1.45;1.00;;;;;;;;;;5112974;27;20023;-86
2022/06/26 12:39:22;;;;;;;1.05;0.85;;;;;;;;;;5132325;27;20103;-85
2022/06/26 12:41:49;;;;;;;1.20;1.00;;;;;;;;;;5131608;27;20138;-83
2022/06/26 12:44:15;;;;;;;1.15;0.98;;;;;;;;;;5129943;28;20050;-86
2022/06/26 12:46:41;;;;;;;1.10;0.80;;;;;;;;;;5132309;28;20027;-85
2022/06/26 12:49:06;;;;;;;2.15;0.90;;;;;;;;;;5132145;28;20440;-84
2022/06/26 12:51:32;;;;;;;3.10;1.60;;;;;;;;;;5130459;28;20027;-85
2022/06/26 12:53:58;;;;;;;1.67;1.00;;;;;;;;;;5131559;28;20039;-85
2022/06/26 12:56:23;;;;;;;2.50;1.10;;;;;;;;;;5132692;27;20089;-85
2022/06/26 12:58:49;;;;;;;1.58;1.00;;;;;;;;;;5133814;27;20038;-85
2022/06/26 13:01:15;;;;;;;1.85;0.90;;;;;;;;;;5137499;27;20440;-85
2022/06/26 13:03:41;;;;;;;1.70;1.02;;;;;;;;;;5135351;27;20027;-85
2022/06/26 13:06:06;;;;;;;1.23;0.80;;;;;;;;;;5136351;27;20099;-84
2022/06/26 13:08:34;;;;;;;0.93;0.80;;;;;;;;;;5134815;27;20030;-84
2022/06/26 13:13:45;;;;;;;1.45;0.90;;;;;;;;;;5132600;27;20042;-85
2022/06/26 13:16:11;;;;;;;1.88;1.13;;;;;;;;;;5133480;27;20019;-84
2022/06/26 13:18:36;;;;;;;1.63;0.90;;;;;;;;;;5134511;27;20039;-83
2022/06/26 13:21:03;;;;;;;2.03;1.00;;;;;;;;;;5114984;27;20035;-83
2022/06/26 13:23:29;;;;;;;5.10;4.65;;;;;;;;;;5133417;27;20086;-82
2022/06/26 13:25:54;;;;;;;1.80;1.05;;;;;;;;;;5131804;27;20035;-86
2022/06/26 13:28:19;;;;;;;2.03;1.10;;;;;;;;;;5136820;27;20023;-85
2022/06/26 13:30:45;;;;;;;2.63;1.30;;;;;;;;;;5116733;27;20046;-83
2022/06/26 13:33:10;;;;;;;2.00;1.00;;;;;;;;;;5135419;27;20152;-85
2022/06/26 13:35:36;;;;;;;1.70;1.10;;;;;;;;;;5135717;27;20378;-84
2022/06/26 13:38:01;;;;;;;1.55;0.93;;;;;;;;;;5116532;27;20031;-83
2022/06/26 13:40:27;;;;;;;1.50;0.90;;;;;;;;;;5135804;27;20088;-83
2022/06/26 13:42:52;;;;;;;2.95;1.10;;;;;;;;;;5135465;27;20080;-84
2022/06/26 13:45:18;;;;;;;1.27;0.80;;;;;;;;;;5117200;27;20023;-83
2022/06/26 13:47:43;;;;;;;1.60;1.20;;;;;;;;;;5116880;27;20042;-85
2022/06/26 13:50:10;;;;;;;1.83;1.40;;;;;;;;;;5134940;27;20030;-84
2022/06/26 13:52:37;;;;;;;1.63;1.00;;;;;;;;;;5116627;27;20042;-83
2022/06/26 13:55:06;;;;;;;2.47;1.30;;;;;;;;;;5134991;27;20035;-84
2022/06/26 13:57:32;;;;;;;1.50;1.00;;;;;;;;;;5135036;27;20166;-84
2022/06/26 13:59:57;;;;;;;1.60;1.08;;;;;;;;;;5116593;27;20498;-86
2022/06/26 14:02:23;;;;;;;1.00;0.80;;;;;;;;;;5134881;27;20054;-82
2022/06/26 14:04:48;;;;;;;2.58;1.92;;;;;;;;;;5134813;27;20015;-84
2022/06/26 14:07:14;;;;;;;2.17;1.95;;;;;;;;;;5133627;27;20027;-85
2022/06/26 14:09:40;;;;;;;1.77;1.08;;;;;;;;;;5133744;27;20150;-87
2022/06/26 14:12:06;;;;;;;2.13;1.08;;;;;;;;;;5134715;27;20034;-86
2022/06/26 14:14:31;;;;;;;1.67;1.00;;;;;;;;;;5133022;27;20026;-84
2022/06/26 14:16:57;;;;;;;1.30;1.05;;;;;;;;;;5134453;27;20749;-88
2022/06/26 14:19:22;;;;;;;1.00;0.90;;;;;;;;;;5114225;27;20019;-84
2022/06/26 14:25:55;;;;;;;2.10;1.00;;;;;;;;;;5130602;27;20076;-85
2022/06/26 14:27:17;;;;;;;1.45;0.95;;;;;;;;;;5132178;27;20080;-85
2022/06/26 14:29:42;;;;;;;2.00;1.00;;;;;;;;;;5132954;27;20035;-83
2022/06/26 14:32:08;;;;;;;1.40;0.85;;;;;;;;;;5114951;27;20068;-87
2022/06/26 14:34:33;;;;;;;1.30;0.90;;;;;;;;;;5132746;27;20494;-85
2022/06/26 14:37:01;;;;;;;0.95;0.90;;;;;;;;;;5131600;27;20048;-83
2022/06/26 14:39:26;;;;;;;0.82;0.82;;;;;;;;;;5133537;27;20438;-84
2022/06/26 14:41:52;;;;;;;2.15;1.73;;;;;;;;;;5130546;27;20106;-83
2022/06/26 14:44:17;;;;;;;1.63;1.08;;;;;;;;;;5132940;27;20023;-83
2022/06/26 14:46:42;;;;;;;4.28;3.88;;;;;;;;;;5113640;27;20027;-82
2022/06/26 14:49:08;;;;;;;1.40;1.10;;;;;;;;;;5133161;27;20082;-84
2022/06/26 14:51:33;;;;;;;0.85;0.65;;;;;;;;;;5134135;27;20019;-83
2022/06/26 14:53:59;;;;;;;1.70;0.93;;;;;;;;;;5115412;27;20499;-85
2022/06/26 14:56:24;;;;;;;1.50;0.88;;;;;;;;;;5134376;27;20045;-84
2022/06/26 14:58:50;;;;;;;1.23;0.90;;;;;;;;;;5113359;27;20035;-86
2022/06/26 15:01:18;;;;;;;1.13;0.90;;;;;;;;;;5132491;27;20483;-83
2022/06/26 15:03:44;;;;;;;1.00;0.70;;;;;;;;;;5130689;27;21201;-86